sensor_id;sensor_type;location;lat;lon;timestamp;P1;P2;P0
77365;PMS5003;66430;50.182;11.704;2023-05-10T00:02:17;10;10;
77365;PMS5003;66430;50.182;11.704;2023-05-10T00:04:42;15;12;
77365;PMS5003;66430;50.182;11.704;2023-05-10T00:07:07;11;11;
77365;PMS5003;66430;50.182;11.704;2023-05-10T00:09:33;12;12;
77365;PMS5003;66430;50.182;11.704;2023-05-10T00:11:58;10;10;
77365;PMS5003;66430;50.182;11.704;2023-05-10T00:14:24;11;10;
77365;PMS5003;66430;50.182;11.704;2023-05-10T00:16:49;10;9;
77365;PMS5003;66430;50.182;11.704;2023-05-10T00:19:15;11;10;
77365;PMS5003;66430;50.182;11.704;2023-05-10T00:21:40;11;11;
77365;PMS5003;66430;50.182;11.704;2023-05-10T00:24:05;13;13;
77365;PMS5003;66430;50.182;11.704;2023-05-10T00:26:31;12;10;
77365;PMS5003;66430;50.182;11.704;2023-05-10T00:28:57;13;12;
77365;PMS5003;66430;50.182;11.704;2023-05-10T00:31:22;12;12;
77365;PMS5003;66430;50.182;11.704;2023-05-10T00:33:47;9;9;
77365;PMS5003;66430;50.182;11.704;2023-05-10T00:36:13;11;10;
77365;PMS5003;66430;50.182;11.704;2023-05-10T00:38:38;9;9;
77365;PMS5003;66430;50.182;11.704;2023-05-10T00:41:04;10;9;
77365;PMS5003;66430;50.182;11.704;2023-05-10T00:43:29;10;10;
77365;PMS5003;66430;50.182;11.704;2023-05-10T00:45:55;12;11;
77365;PMS5003;66430;50.182;11.704;2023-05-10T00:48:20;9;9;
77365;PMS5003;66430;50.182;11.704;2023-05-10T00:50:45;13;11;
77365;PMS5003;66430;50.182;11.704;2023-05-10T00:53:11;13;13;
77365;PMS5003;66430;50.182;11.704;2023-05-10T00:55:36;12;12;
77365;PMS5003;66430;50.182;11.704;2023-05-10T00:58:01;13;13;
77365;PMS5003;66430;50.182;11.704;2023-05-10T01:00:26;12;12;
77365;PMS5003;66430;50.182;11.704;2023-05-10T01:02:52;11;11;
77365;PMS5003;66430;50.182;11.704;2023-05-10T01:05:17;11;10;
77365;PMS5003;66430;50.182;11.704;2023-05-10T01:07:42;13;13;
77365;PMS5003;66430;50.182;11.704;2023-05-10T01:10:08;10;10;
77365;PMS5003;66430;50.182;11.704;2023-05-10T01:12:33;14;12;
77365;PMS5003;66430;50.182;11.704;2023-05-10T01:14:59;13;11;
77365;PMS5003;66430;50.182;11.704;2023-05-10T01:17:24;13;12;
77365;PMS5003;66430;50.182;11.704;2023-05-10T01:19:49;10;10;
77365;PMS5003;66430;50.182;11.704;2023-05-10T01:22:22;11;11;
77365;PMS5003;66430;50.182;11.704;2023-05-10T01:27:13;11;11;
77365;PMS5003;66430;50.182;11.704;2023-05-10T01:29:38;12;11;
77365;PMS5003;66430;50.182;11.704;2023-05-10T01:32:00;12;12;
77365;PMS5003;66430;50.182;11.704;2023-05-10T01:34:23;11;11;
77365;PMS5003;66430;50.182;11.704;2023-05-10T01:36:48;12;12;
77365;PMS5003;66430;50.182;11.704;2023-05-10T01:39:15;12;12;
77365;PMS5003;66430;50.182;11.704;2023-05-10T01:41:39;9;9;
77365;PMS5003;66430;50.182;11.704;2023-05-10T01:44:04;11;11;
77365;PMS5003;66430;50.182;11.704;2023-05-10T01:46:30;11;11;
77365;PMS5003;66430;50.182;11.704;2023-05-10T01:48:54;12;12;
77365;PMS5003;66430;50.182;11.704;2023-05-10T01:51:20;12;12;
77365;PMS5003;66430;50.182;11.704;2023-05-10T01:53:44;15;13;
77365;PMS5003;66430;50.182;11.704;2023-05-10T01:56:09;14;14;
77365;PMS5003;66430;50.182;11.704;2023-05-10T01:58:35;13;13;
77365;PMS5003;66430;50.182;11.704;2023-05-10T02:01:01;12;12;
77365;PMS5003;66430;50.182;11.704;2023-05-10T02:03:26;14;13;
77365;PMS5003;66430;50.182;11.704;2023-05-10T02:05:52;14;12;
77365;PMS5003;66430;50.182;11.704;2023-05-10T02:08:17;14;12;
77365;PMS5003;66430;50.182;11.704;2023-05-10T02:10:42;16;13;
77365;PMS5003;66430;50.182;11.704;2023-05-10T02:13:07;13;12;
77365;PMS5003;66430;50.182;11.704;2023-05-10T02:15:32;14;14;
77365;PMS5003;66430;50.182;11.704;2023-05-10T02:17:57;13;13;
77365;PMS5003;66430;50.182;11.704;2023-05-10T02:20:22;15;12;
77365;PMS5003;66430;50.182;11.704;2023-05-10T02:22:48;12;11;
77365;PMS5003;66430;50.182;11.704;2023-05-10T02:25:13;12;12;
77365;PMS5003;66430;50.182;11.704;2023-05-10T02:27:39;17;16;
77365;PMS5003;66430;50.182;11.704;2023-05-10T02:30:05;15;15;
77365;PMS5003;66430;50.182;11.704;2023-05-10T02:32:30;12;12;
77365;PMS5003;66430;50.182;11.704;2023-05-10T02:34:55;11;11;
77365;PMS5003;66430;50.182;11.704;2023-05-10T02:37:20;12;12;
77365;PMS5003;66430;50.182;11.704;2023-05-10T02:39:46;14;13;
77365;PMS5003;66430;50.182;11.704;2023-05-10T02:42:12;14;14;
77365;PMS5003;66430;50.182;11.704;2023-05-10T02:44:37;14;13;
77365;PMS5003;66430;50.182;11.704;2023-05-10T02:47:02;12;12;
77365;PMS5003;66430;50.182;11.704;2023-05-10T02:49:28;17;16;
77365;PMS5003;66430;50.182;11.704;2023-05-10T02:51:56;12;12;
77365;PMS5003;66430;50.182;11.704;2023-05-10T02:54:20;15;14;
77365;PMS5003;66430;50.182;11.704;2023-05-10T02:56:47;15;15;
77365;PMS5003;66430;50.182;11.704;2023-05-10T02:59:10;17;15;
77365;PMS5003;66430;50.182;11.704;2023-05-10T03:01:35;13;13;
77365;PMS5003;66430;50.182;11.704;2023-05-10T03:04:01;16;14;
77365;PMS5003;66430;50.182;11.704;2023-05-10T03:06:26;20;20;
77365;PMS5003;66430;50.182;11.704;2023-05-10T03:08:51;12;12;
77365;PMS5003;66430;50.182;11.704;2023-05-10T03:11:22;15;14;
77365;PMS5003;66430;50.182;11.704;2023-05-10T03:13:44;13;13;
77365;PMS5003;66430;50.182;11.704;2023-05-10T03:16:08;14;14;
77365;PMS5003;66430;50.182;11.704;2023-05-10T03:18:35;12;12;
77365;PMS5003;66430;50.182;11.704;2023-05-10T03:20:59;15;15;
77365;PMS5003;66430;50.182;11.704;2023-05-10T03:23:26;14;14;
77365;PMS5003;66430;50.182;11.704;2023-05-10T03:25:49;18;16;
77365;PMS5003;66430;50.182;11.704;2023-05-10T03:28:15;15;15;
77365;PMS5003;66430;50.182;11.704;2023-05-10T03:30:40;12;12;
77365;PMS5003;66430;50.182;11.704;2023-05-10T03:33:04;12;12;
77365;PMS5003;66430;50.182;11.704;2023-05-10T03:35:30;14;12;
77365;PMS5003;66430;50.182;11.704;2023-05-10T03:37:56;13;12;
77365;PMS5003;66430;50.182;11.704;2023-05-10T03:40:21;15;15;
77365;PMS5003;66430;50.182;11.704;2023-05-10T03:42:46;16;16;
77365;PMS5003;66430;50.182;11.704;2023-05-10T03:45:12;13;12;
77365;PMS5003;66430;50.182;11.704;2023-05-10T03:47:37;14;14;
77365;PMS5003;66430;50.182;11.704;2023-05-10T03:50:03;12;12;
77365;PMS5003;66430;50.182;11.704;2023-05-10T03:52:28;11;11;
77365;PMS5003;66430;50.182;11.704;2023-05-10T03:54:54;14;12;
77365;PMS5003;66430;50.182;11.704;2023-05-10T03:57:19;11;11;
77365;PMS5003;66430;50.182;11.704;2023-05-10T03:59:45;13;11;
77365;PMS5003;66430;50.182;11.704;2023-05-10T04:02:10;14;13;
77365;PMS5003;66430;50.182;11.704;2023-05-10T04:04:35;13;12;
77365;PMS5003;66430;50.182;11.704;2023-05-10T04:07:06;14;12;
77365;PMS5003;66430;50.182;11.704;2023-05-10T04:09:26;12;12;
77365;PMS5003;66430;50.182;11.704;2023-05-10T04:11:52;13;12;
77365;PMS5003;66430;50.182;11.704;2023-05-10T04:14:17;14;13;
77365;PMS5003;66430;50.182;11.704;2023-05-10T04:16:42;13;13;
77365;PMS5003;66430;50.182;11.704;2023-05-10T04:19:08;12;11;
77365;PMS5003;66430;50.182;11.704;2023-05-10T04:21:33;14;12;
77365;PMS5003;66430;50.182;11.704;2023-05-10T04:23:59;12;12;
77365;PMS5003;66430;50.182;11.704;2023-05-10T04:26:24;15;13;
77365;PMS5003;66430;50.182;11.704;2023-05-10T04:28:49;17;14;
77365;PMS5003;66430;50.182;11.704;2023-05-10T04:31:14;10;10;
77365;PMS5003;66430;50.182;11.704;2023-05-10T04:33:40;12;12;
77365;PMS5003;66430;50.182;11.704;2023-05-10T04:36:05;14;12;
77365;PMS5003;66430;50.182;11.704;2023-05-10T04:38:31;15;15;
77365;PMS5003;66430;50.182;11.704;2023-05-10T04:43:21;14;12;
77365;PMS5003;66430;50.182;11.704;2023-05-10T04:45:46;14;14;
77365;PMS5003;66430;50.182;11.704;2023-05-10T04:48:12;16;15;
77365;PMS5003;66430;50.182;11.704;2023-05-10T04:50:37;18;18;
77365;PMS5003;66430;50.182;11.704;2023-05-10T04:53:02;20;19;
77365;PMS5003;66430;50.182;11.704;2023-05-10T04:55:29;13;13;
77365;PMS5003;66430;50.182;11.704;2023-05-10T04:57:53;14;13;
77365;PMS5003;66430;50.182;11.704;2023-05-10T05:00:19;14;14;
77365;PMS5003;66430;50.182;11.704;2023-05-10T05:02:44;14;14;
77365;PMS5003;66430;50.182;11.704;2023-05-10T05:05:09;15;14;
77365;PMS5003;66430;50.182;11.704;2023-05-10T05:07:34;15;14;
77365;PMS5003;66430;50.182;11.704;2023-05-10T05:10:00;13;13;
77365;PMS5003;66430;50.182;11.704;2023-05-10T05:12:25;15;15;
77365;PMS5003;66430;50.182;11.704;2023-05-10T05:14:51;13;13;
77365;PMS5003;66430;50.182;11.704;2023-05-10T05:17:16;13;13;
77365;PMS5003;66430;50.182;11.704;2023-05-10T05:19:42;14;13;
77365;PMS5003;66430;50.182;11.704;2023-05-10T05:22:07;12;12;
77365;PMS5003;66430;50.182;11.704;2023-05-10T05:24:34;15;13;
77365;PMS5003;66430;50.182;11.704;2023-05-10T05:26:58;14;12;
77365;PMS5003;66430;50.182;11.704;2023-05-10T05:29:24;14;12;
77365;PMS5003;66430;50.182;11.704;2023-05-10T05:31:49;15;15;
77365;PMS5003;66430;50.182;11.704;2023-05-10T05:34:14;14;14;
77365;PMS5003;66430;50.182;11.704;2023-05-10T05:36:40;16;16;
77365;PMS5003;66430;50.182;11.704;2023-05-10T05:39:05;17;15;
77365;PMS5003;66430;50.182;11.704;2023-05-10T05:41:30;14;13;
77365;PMS5003;66430;50.182;11.704;2023-05-10T05:43:56;14;13;
77365;PMS5003;66430;50.182;11.704;2023-05-10T05:46:21;16;16;
77365;PMS5003;66430;50.182;11.704;2023-05-10T05:48:47;12;12;
77365;PMS5003;66430;50.182;11.704;2023-05-10T05:51:12;14;12;
77365;PMS5003;66430;50.182;11.704;2023-05-10T05:53:38;15;15;
77365;PMS5003;66430;50.182;11.704;2023-05-10T05:56:03;14;12;
77365;PMS5003;66430;50.182;11.704;2023-05-10T05:58:29;14;14;
77365;PMS5003;66430;50.182;11.704;2023-05-10T06:00:54;11;11;
77365;PMS5003;66430;50.182;11.704;2023-05-10T06:03:20;12;12;
77365;PMS5003;66430;50.182;11.704;2023-05-10T06:05:44;15;15;
77365;PMS5003;66430;50.182;11.704;2023-05-10T06:08:10;15;15;
77365;PMS5003;66430;50.182;11.704;2023-05-10T06:10:35;18;17;
77365;PMS5003;66430;50.182;11.704;2023-05-10T06:13:00;13;12;
77365;PMS5003;66430;50.182;11.704;2023-05-10T06:15:26;19;17;
77365;PMS5003;66430;50.182;11.704;2023-05-10T06:17:51;17;15;
77365;PMS5003;66430;50.182;11.704;2023-05-10T06:20:17;14;14;
77365;PMS5003;66430;50.182;11.704;2023-05-10T06:22:42;13;13;
77365;PMS5003;66430;50.182;11.704;2023-05-10T06:25:08;17;15;
77365;PMS5003;66430;50.182;11.704;2023-05-10T06:27:33;15;15;
77365;PMS5003;66430;50.182;11.704;2023-05-10T06:29:58;14;14;
77365;PMS5003;66430;50.182;11.704;2023-05-10T06:32:23;11;10;
77365;PMS5003;66430;50.182;11.704;2023-05-10T06:34:49;15;14;
77365;PMS5003;66430;50.182;11.704;2023-05-10T06:37:15;13;13;
77365;PMS5003;66430;50.182;11.704;2023-05-10T06:39:40;14;14;
77365;PMS5003;66430;50.182;11.704;2023-05-10T06:42:05;13;12;
77365;PMS5003;66430;50.182;11.704;2023-05-10T06:44:31;15;13;
77365;PMS5003;66430;50.182;11.704;2023-05-10T06:46:57;15;15;
77365;PMS5003;66430;50.182;11.704;2023-05-10T06:49:21;12;11;
77365;PMS5003;66430;50.182;11.704;2023-05-10T06:51:47;15;13;
77365;PMS5003;66430;50.182;11.704;2023-05-10T06:54:12;14;12;
77365;PMS5003;66430;50.182;11.704;2023-05-10T06:56:38;13;13;
77365;PMS5003;66430;50.182;11.704;2023-05-10T06:59:03;11;11;
77365;PMS5003;66430;50.182;11.704;2023-05-10T07:01:29;14;11;
77365;PMS5003;66430;50.182;11.704;2023-05-10T07:03:54;13;13;
77365;PMS5003;66430;50.182;11.704;2023-05-10T07:06:19;13;13;
77365;PMS5003;66430;50.182;11.704;2023-05-10T07:08:44;15;14;
77365;PMS5003;66430;50.182;11.704;2023-05-10T07:11:10;15;15;
77365;PMS5003;66430;50.182;11.704;2023-05-10T07:13:35;12;12;
77365;PMS5003;66430;50.182;11.704;2023-05-10T07:16:00;15;14;
77365;PMS5003;66430;50.182;11.704;2023-05-10T07:18:25;11;11;
77365;PMS5003;66430;50.182;11.704;2023-05-10T07:20:50;13;13;
77365;PMS5003;66430;50.182;11.704;2023-05-10T07:23:16;12;12;
77365;PMS5003;66430;50.182;11.704;2023-05-10T07:25:41;14;13;
77365;PMS5003;66430;50.182;11.704;2023-05-10T07:28:06;11;11;
77365;PMS5003;66430;50.182;11.704;2023-05-10T07:30:32;13;13;
77365;PMS5003;66430;50.182;11.704;2023-05-10T07:32:57;13;13;
77365;PMS5003;66430;50.182;11.704;2023-05-10T07:35:23;11;11;
77365;PMS5003;66430;50.182;11.704;2023-05-10T07:37:48;14;12;
77365;PMS5003;66430;50.182;11.704;2023-05-10T07:40:13;10;10;
77365;PMS5003;66430;50.182;11.704;2023-05-10T07:42:39;11;11;
77365;PMS5003;66430;50.182;11.704;2023-05-10T07:45:05;11;10;
77365;PMS5003;66430;50.182;11.704;2023-05-10T07:47:30;11;11;
77365;PMS5003;66430;50.182;11.704;2023-05-10T07:49:55;9;9;
77365;PMS5003;66430;50.182;11.704;2023-05-10T07:52:21;10;10;
77365;PMS5003;66430;50.182;11.704;2023-05-10T07:54:46;9;9;
77365;PMS5003;66430;50.182;11.704;2023-05-10T07:57:11;10;9;
77365;PMS5003;66430;50.182;11.704;2023-05-10T07:59:37;10;10;
77365;PMS5003;66430;50.182;11.704;2023-05-10T08:02:02;7;7;
77365;PMS5003;66430;50.182;11.704;2023-05-10T08:04:27;7;6;
77365;PMS5003;66430;50.182;11.704;2023-05-10T08:06:52;9;9;
77365;PMS5003;66430;50.182;11.704;2023-05-10T08:09:18;6;6;
77365;PMS5003;66430;50.182;11.704;2023-05-10T08:11:43;5;5;
77365;PMS5003;66430;50.182;11.704;2023-05-10T08:14:09;11;10;
77365;PMS5003;66430;50.182;11.704;2023-05-10T08:16:39;6;6;
77365;PMS5003;66430;50.182;11.704;2023-05-10T08:18:59;9;8;
77365;PMS5003;66430;50.182;11.704;2023-05-10T08:21:25;4;4;
77365;PMS5003;66430;50.182;11.704;2023-05-10T08:23:50;5;5;
77365;PMS5003;66430;50.182;11.704;2023-05-10T08:26:16;7;7;
77365;PMS5003;66430;50.182;11.704;2023-05-10T08:28:41;7;7;
77365;PMS5003;66430;50.182;11.704;2023-05-10T08:31:06;6;6;
77365;PMS5003;66430;50.182;11.704;2023-05-10T08:33:32;6;6;
77365;PMS5003;66430;50.182;11.704;2023-05-10T08:35:58;5;5;
77365;PMS5003;66430;50.182;11.704;2023-05-10T08:38:23;4;4;
77365;PMS5003;66430;50.182;11.704;2023-05-10T08:40:49;6;6;
77365;PMS5003;66430;50.182;11.704;2023-05-10T08:43:13;3;3;
77365;PMS5003;66430;50.182;11.704;2023-05-10T08:45:39;4;3;
77365;PMS5003;66430;50.182;11.704;2023-05-10T08:48:05;3;3;
77365;PMS5003;66430;50.182;11.704;2023-05-10T08:50:30;4;4;
77365;PMS5003;66430;50.182;11.704;2023-05-10T08:52:55;4;4;
77365;PMS5003;66430;50.182;11.704;2023-05-10T08:55:20;3;3;
77365;PMS5003;66430;50.182;11.704;2023-05-10T08:57:46;3;3;
77365;PMS5003;66430;50.182;11.704;2023-05-10T09:00:12;5;5;
77365;PMS5003;66430;50.182;11.704;2023-05-10T09:02:37;2;2;
77365;PMS5003;66430;50.182;11.704;2023-05-10T09:05:02;4;4;
77365;PMS5003;66430;50.182;11.704;2023-05-10T09:07:27;3;3;
77365;PMS5003;66430;50.182;11.704;2023-05-10T09:09:53;3;3;
77365;PMS5003;66430;50.182;11.704;2023-05-10T09:12:18;3;3;
77365;PMS5003;66430;50.182;11.704;2023-05-10T09:14:44;4;4;
77365;PMS5003;66430;50.182;11.704;2023-05-10T09:17:09;4;4;
77365;PMS5003;66430;50.182;11.704;2023-05-10T09:19:34;4;4;
77365;PMS5003;66430;50.182;11.704;2023-05-10T09:21:59;3;3;
77365;PMS5003;66430;50.182;11.704;2023-05-10T09:24:25;4;4;
77365;PMS5003;66430;50.182;11.704;2023-05-10T09:26:50;3;3;
77365;PMS5003;66430;50.182;11.704;2023-05-10T09:29:21;3;3;
77365;PMS5003;66430;50.182;11.704;2023-05-10T09:31:45;4;4;
77365;PMS5003;66430;50.182;11.704;2023-05-10T09:34:06;4;4;
77365;PMS5003;66430;50.182;11.704;2023-05-10T09:36:32;4;4;
77365;PMS5003;66430;50.182;11.704;2023-05-10T09:38:57;5;5;
77365;PMS5003;66430;50.182;11.704;2023-05-10T09:41:23;4;4;
77365;PMS5003;66430;50.182;11.704;2023-05-10T09:43:48;6;4;
77365;PMS5003;66430;50.182;11.704;2023-05-10T09:46:13;5;5;
77365;PMS5003;66430;50.182;11.704;2023-05-10T09:48:41;7;7;
77365;PMS5003;66430;50.182;11.704;2023-05-10T09:51:04;4;4;
77365;PMS5003;66430;50.182;11.704;2023-05-10T09:53:29;5;5;
77365;PMS5003;66430;50.182;11.704;2023-05-10T09:55:55;3;3;
77365;PMS5003;66430;50.182;11.704;2023-05-10T09:58:20;3;3;
77365;PMS5003;66430;50.182;11.704;2023-05-10T10:00:46;2;2;
77365;PMS5003;66430;50.182;11.704;2023-05-10T10:03:13;3;3;
77365;PMS5003;66430;50.182;11.704;2023-05-10T10:05:37;2;2;
77365;PMS5003;66430;50.182;11.704;2023-05-10T10:08:02;3;3;
77365;PMS5003;66430;50.182;11.704;2023-05-10T10:10:27;2;2;
77365;PMS5003;66430;50.182;11.704;2023-05-10T10:12:53;1;1;
77365;PMS5003;66430;50.182;11.704;2023-05-10T10:15:18;1;1;
77365;PMS5003;66430;50.182;11.704;2023-05-10T10:17:43;3;3;
77365;PMS5003;66430;50.182;11.704;2023-05-10T10:20:09;2;2;
77365;PMS5003;66430;50.182;11.704;2023-05-10T10:22:34;3;3;
77365;PMS5003;66430;50.182;11.704;2023-05-10T10:25:00;2;2;
77365;PMS5003;66430;50.182;11.704;2023-05-10T10:27:26;2;2;
77365;PMS5003;66430;50.182;11.704;2023-05-10T10:29:55;3;3;
77365;PMS5003;66430;50.182;11.704;2023-05-10T10:32:19;3;3;
77365;PMS5003;66430;50.182;11.704;2023-05-10T10:34:41;4;4;
77365;PMS5003;66430;50.182;11.704;2023-05-10T10:37:06;5;5;
77365;PMS5003;66430;50.182;11.704;2023-05-10T10:39:32;2;2;
77365;PMS5003;66430;50.182;11.704;2023-05-10T10:41:57;4;4;
77365;PMS5003;66430;50.182;11.704;2023-05-10T10:44:34;4;4;
77365;PMS5003;66430;50.182;11.704;2023-05-10T10:49:14;6;6;
77365;PMS5003;66430;50.182;11.704;2023-05-10T10:51:38;10;9;
77365;PMS5003;66430;50.182;11.704;2023-05-10T10:54:08;3;3;
77365;PMS5003;66430;50.182;11.704;2023-05-10T10:56:29;4;4;
77365;PMS5003;66430;50.182;11.704;2023-05-10T10:58:56;6;6;
77365;PMS5003;66430;50.182;11.704;2023-05-10T11:01:20;7;6;
77365;PMS5003;66430;50.182;11.704;2023-05-10T11:06:10;3;3;
77365;PMS5003;66430;50.182;11.704;2023-05-10T11:11:03;5;5;
77365;PMS5003;66430;50.182;11.704;2023-05-10T11:13:27;7;7;
77365;PMS5003;66430;50.182;11.704;2023-05-10T11:15:52;4;4;
77365;PMS5003;66430;50.182;11.704;2023-05-10T11:18:17;3;3;
77365;PMS5003;66430;50.182;11.704;2023-05-10T11:20:42;3;3;
77365;PMS5003;66430;50.182;11.704;2023-05-10T11:23:11;4;4;
77365;PMS5003;66430;50.182;11.704;2023-05-10T11:25:33;5;5;
77365;PMS5003;66430;50.182;11.704;2023-05-10T11:27:58;5;5;
77365;PMS5003;66430;50.182;11.704;2023-05-10T11:30:24;5;5;
77365;PMS5003;66430;50.182;11.704;2023-05-10T11:32:49;6;5;
77365;PMS5003;66430;50.182;11.704;2023-05-10T11:35:14;6;6;
77365;PMS5003;66430;50.182;11.704;2023-05-10T11:37:40;3;3;
77365;PMS5003;66430;50.182;11.704;2023-05-10T11:40:05;3;3;
77365;PMS5003;66430;50.182;11.704;2023-05-10T11:42:31;3;3;
77365;PMS5003;66430;50.182;11.704;2023-05-10T11:44:56;4;4;
77365;PMS5003;66430;50.182;11.704;2023-05-10T11:47:21;4;4;
77365;PMS5003;66430;50.182;11.704;2023-05-10T11:49:47;2;2;
77365;PMS5003;66430;50.182;11.704;2023-05-10T11:52:12;2;2;
77365;PMS5003;66430;50.182;11.704;2023-05-10T11:54:37;3;3;
77365;PMS5003;66430;50.182;11.704;2023-05-10T11:57:02;3;3;
77365;PMS5003;66430;50.182;11.704;2023-05-10T11:59:28;3;3;
77365;PMS5003;66430;50.182;11.704;2023-05-10T12:01:53;4;4;
77365;PMS5003;66430;50.182;11.704;2023-05-10T12:04:18;4;4;
77365;PMS5003;66430;50.182;11.704;2023-05-10T12:06:44;3;3;
77365;PMS5003;66430;50.182;11.704;2023-05-10T12:09:09;1;1;
77365;PMS5003;66430;50.182;11.704;2023-05-10T12:11:36;3;3;
77365;PMS5003;66430;50.182;11.704;2023-05-10T12:13:59;3;3;
77365;PMS5003;66430;50.182;11.704;2023-05-10T12:16:25;2;2;
77365;PMS5003;66430;50.182;11.704;2023-05-10T12:18:51;4;4;
77365;PMS5003;66430;50.182;11.704;2023-05-10T12:21:15;3;3;
77365;PMS5003;66430;50.182;11.704;2023-05-10T12:23:41;2;2;
77365;PMS5003;66430;50.182;11.704;2023-05-10T12:26:06;2;2;
77365;PMS5003;66430;50.182;11.704;2023-05-10T12:28:31;2;2;
77365;PMS5003;66430;50.182;11.704;2023-05-10T12:30:57;5;4;
77365;PMS5003;66430;50.182;11.704;2023-05-10T12:33:22;2;2;
77365;PMS5003;66430;50.182;11.704;2023-05-10T12:35:48;4;4;
77365;PMS5003;66430;50.182;11.704;2023-05-10T12:40:38;2;2;
77365;PMS5003;66430;50.182;11.704;2023-05-10T12:43:04;5;3;
77365;PMS5003;66430;50.182;11.704;2023-05-10T12:45:29;4;4;
77365;PMS5003;66430;50.182;11.704;2023-05-10T12:47:54;3;3;
77365;PMS5003;66430;50.182;11.704;2023-05-10T12:50:19;3;3;
77365;PMS5003;66430;50.182;11.704;2023-05-10T12:52:45;4;4;
77365;PMS5003;66430;50.182;11.704;2023-05-10T12:55:10;4;4;
77365;PMS5003;66430;50.182;11.704;2023-05-10T12:57:36;4;4;
77365;PMS5003;66430;50.182;11.704;2023-05-10T13:00:01;4;4;
77365;PMS5003;66430;50.182;11.704;2023-05-10T13:02:26;3;3;
77365;PMS5003;66430;50.182;11.704;2023-05-10T13:04:52;3;3;
77365;PMS5003;66430;50.182;11.704;2023-05-10T13:07:17;2;2;
77365;PMS5003;66430;50.182;11.704;2023-05-10T13:09:42;1;1;
77365;PMS5003;66430;50.182;11.704;2023-05-10T13:12:07;2;2;
77365;PMS5003;66430;50.182;11.704;2023-05-10T13:14:33;2;2;
77365;PMS5003;66430;50.182;11.704;2023-05-10T13:16:58;3;3;
77365;PMS5003;66430;50.182;11.704;2023-05-10T13:19:23;2;2;
77365;PMS5003;66430;50.182;11.704;2023-05-10T13:21:49;2;2;
77365;PMS5003;66430;50.182;11.704;2023-05-10T13:24:14;2;2;
77365;PMS5003;66430;50.182;11.704;2023-05-10T13:26:40;3;3;
77365;PMS5003;66430;50.182;11.704;2023-05-10T13:29:05;1;1;
77365;PMS5003;66430;50.182;11.704;2023-05-10T13:31:30;1;1;
77365;PMS5003;66430;50.182;11.704;2023-05-10T13:33:57;3;1;
77365;PMS5003;66430;50.182;11.704;2023-05-10T13:36:21;4;3;
77365;PMS5003;66430;50.182;11.704;2023-05-10T13:38:46;2;2;
77365;PMS5003;66430;50.182;11.704;2023-05-10T13:41:11;3;2;
77365;PMS5003;66430;50.182;11.704;2023-05-10T13:43:37;3;3;
77365;PMS5003;66430;50.182;11.704;2023-05-10T13:46:02;2;2;
77365;PMS5003;66430;50.182;11.704;2023-05-10T13:48:27;3;3;
77365;PMS5003;66430;50.182;11.704;2023-05-10T13:50:53;2;2;
77365;PMS5003;66430;50.182;11.704;2023-05-10T13:53:18;3;3;
77365;PMS5003;66430;50.182;11.704;2023-05-10T13:55:43;2;2;
77365;PMS5003;66430;50.182;11.704;2023-05-10T13:58:08;2;2;
77365;PMS5003;66430;50.182;11.704;2023-05-10T14:00:34;3;3;
77365;PMS5003;66430;50.182;11.704;2023-05-10T14:02:59;3;3;
77365;PMS5003;66430;50.182;11.704;2023-05-10T14:05:25;2;2;
77365;PMS5003;66430;50.182;11.704;2023-05-10T14:07:50;4;4;
77365;PMS5003;66430;50.182;11.704;2023-05-10T14:10:15;3;3;
77365;PMS5003;66430;50.182;11.704;2023-05-10T14:12:40;2;2;
77365;PMS5003;66430;50.182;11.704;2023-05-10T14:15:06;3;3;
77365;PMS5003;66430;50.182;11.704;2023-05-10T14:17:31;3;3;
77365;PMS5003;66430;50.182;11.704;2023-05-10T14:19:56;4;3;
77365;PMS5003;66430;50.182;11.704;2023-05-10T14:22:22;1;1;
77365;PMS5003;66430;50.182;11.704;2023-05-10T14:24:47;3;3;
77365;PMS5003;66430;50.182;11.704;2023-05-10T14:27:12;2;2;
77365;PMS5003;66430;50.182;11.704;2023-05-10T14:29:38;1;1;
77365;PMS5003;66430;50.182;11.704;2023-05-10T14:32:03;3;3;
77365;PMS5003;66430;50.182;11.704;2023-05-10T14:34:28;3;3;
77365;PMS5003;66430;50.182;11.704;2023-05-10T14:36:54;1;1;
77365;PMS5003;66430;50.182;11.704;2023-05-10T14:39:19;4;4;
77365;PMS5003;66430;50.182;11.704;2023-05-10T14:41:44;3;3;
77365;PMS5003;66430;50.182;11.704;2023-05-10T14:44:11;4;2;
77365;PMS5003;66430;50.182;11.704;2023-05-10T14:46:35;3;3;
77365;PMS5003;66430;50.182;11.704;2023-05-10T14:49:00;3;3;
77365;PMS5003;66430;50.182;11.704;2023-05-10T14:51:26;3;3;
77365;PMS5003;66430;50.182;11.704;2023-05-10T14:53:51;4;4;
77365;PMS5003;66430;50.182;11.704;2023-05-10T14:56:16;4;4;
77365;PMS5003;66430;50.182;11.704;2023-05-10T14:58:42;3;3;
77365;PMS5003;66430;50.182;11.704;2023-05-10T15:01:07;3;3;
77365;PMS5003;66430;50.182;11.704;2023-05-10T15:03:32;3;3;
77365;PMS5003;66430;50.182;11.704;2023-05-10T15:05:58;4;4;
77365;PMS5003;66430;50.182;11.704;2023-05-10T15:08:23;4;4;
77365;PMS5003;66430;50.182;11.704;2023-05-10T15:10:48;4;4;
77365;PMS5003;66430;50.182;11.704;2023-05-10T15:13:14;3;3;
77365;PMS5003;66430;50.182;11.704;2023-05-10T15:15:39;2;2;
77365;PMS5003;66430;50.182;11.704;2023-05-10T15:18:04;3;3;
77365;PMS5003;66430;50.182;11.704;2023-05-10T15:20:30;4;4;
77365;PMS5003;66430;50.182;11.704;2023-05-10T15:22:55;3;3;
77365;PMS5003;66430;50.182;11.704;2023-05-10T15:25:20;1;1;
77365;PMS5003;66430;50.182;11.704;2023-05-10T15:27:46;2;2;
77365;PMS5003;66430;50.182;11.704;2023-05-10T15:30:12;2;2;
77365;PMS5003;66430;50.182;11.704;2023-05-10T15:32:36;3;1;
77365;PMS5003;66430;50.182;11.704;2023-05-10T15:35:02;2;2;
77365;PMS5003;66430;50.182;11.704;2023-05-10T15:37:27;2;2;
77365;PMS5003;66430;50.182;11.704;2023-05-10T15:39:52;1;1;
77365;PMS5003;66430;50.182;11.704;2023-05-10T15:42:18;3;3;
77365;PMS5003;66430;50.182;11.704;2023-05-10T15:44:43;3;3;
77365;PMS5003;66430;50.182;11.704;2023-05-10T15:47:08;5;5;
77365;PMS5003;66430;50.182;11.704;2023-05-10T15:49:33;3;3;
77365;PMS5003;66430;50.182;11.704;2023-05-10T15:51:59;4;4;
77365;PMS5003;66430;50.182;11.704;2023-05-10T15:54:24;3;3;
77365;PMS5003;66430;50.182;11.704;2023-05-10T15:56:49;3;2;
77365;PMS5003;66430;50.182;11.704;2023-05-10T15:59:15;4;3;
77365;PMS5003;66430;50.182;11.704;2023-05-10T16:01:40;3;3;
77365;PMS5003;66430;50.182;11.704;2023-05-10T16:04:05;5;4;
77365;PMS5003;66430;50.182;11.704;2023-05-10T16:06:31;2;2;
77365;PMS5003;66430;50.182;11.704;2023-05-10T16:08:56;4;4;
77365;PMS5003;66430;50.182;11.704;2023-05-10T16:11:22;2;2;
77365;PMS5003;66430;50.182;11.704;2023-05-10T16:13:47;4;4;
77365;PMS5003;66430;50.182;11.704;2023-05-10T16:16:12;2;2;
77365;PMS5003;66430;50.182;11.704;2023-05-10T16:18:38;6;5;
77365;PMS5003;66430;50.182;11.704;2023-05-10T16:21:03;3;3;